sensor_id;sensor_type;location;lat;lon;timestamp;P1;durP1;ratioP1;P2;durP2;ratioP2
16391;SDS011;8305;-33.882;151.134;2023-06-22T00:02:24;7.70;;;4.40;;
16391;SDS011;8305;-33.882;151.134;2023-06-22T00:04:57;8.45;;;4.57;;
16391;SDS011;8305;-33.882;151.134;2023-06-22T00:07:28;6.47;;;4.13;;
16391;SDS011;8305;-33.882;151.134;2023-06-22T00:09:59;7.55;;;5.07;;
16391;SDS011;8305;-33.882;151.134;2023-06-22T00:12:30;9.95;;;4.60;;
16391;SDS011;8305;-33.882;151.134;2023-06-22T00:15:02;7.22;;;4.38;;
16391;SDS011;8305;-33.882;151.134;2023-06-22T00:17:33;9.45;;;4.70;;
16391;SDS011;8305;-33.882;151.134;2023-06-22T00:20:07;7.38;;;4.05;;
16391;SDS011;8305;-33.882;151.134;2023-06-22T00:22:38;8.38;;;4.05;;
16391;SDS011;8305;-33.882;151.134;2023-06-22T00:25:10;11.23;;;5.22;;
16391;SDS011;8305;-33.882;151.134;2023-06-22T00:27:41;9.15;;;4.60;;
16391;SDS011;8305;-33.882;151.134;2023-06-22T00:30:12;8.70;;;3.78;;
16391;SDS011;8305;-33.882;151.134;2023-06-22T00:32:44;10.38;;;4.63;;
16391;SDS011;8305;-33.882;151.134;2023-06-22T00:35:17;10.30;;;4.63;;
16391;SDS011;8305;-33.882;151.134;2023-06-22T00:37:48;9.00;;;4.47;;
16391;SDS011;8305;-33.882;151.134;2023-06-22T00:40:26;7.60;;;4.70;;
16391;SDS011;8305;-33.882;151.134;2023-06-22T00:42:58;8.82;;;4.75;;
16391;SDS011;8305;-33.882;151.134;2023-06-22T00:45:29;9.07;;;4.72;;
16391;SDS011;8305;-33.882;151.134;2023-06-22T00:48:00;7.57;;;4.20;;
16391;SDS011;8305;-33.882;151.134;2023-06-22T00:50:34;7.85;;;4.50;;
16391;SDS011;8305;-33.882;151.134;2023-06-22T00:53:05;7.50;;;4.53;;
16391;SDS011;8305;-33.882;151.134;2023-06-22T00:55:38;7.90;;;4.28;;
16391;SDS011;8305;-33.882;151.134;2023-06-22T00:58:13;6.80;;;4.10;;
16391;SDS011;8305;-33.882;151.134;2023-06-22T01:00:44;10.18;;;3.97;;
16391;SDS011;8305;-33.882;151.134;2023-06-22T01:03:15;7.22;;;4.13;;
16391;SDS011;8305;-33.882;151.134;2023-06-22T01:05:49;10.75;;;4.50;;
16391;SDS011;8305;-33.882;151.134;2023-06-22T01:08:25;11.98;;;4.43;;
16391;SDS011;8305;-33.882;151.134;2023-06-22T01:11:09;8.93;;;4.30;;
16391;SDS011;8305;-33.882;151.134;2023-06-22T01:13:46;10.50;;;3.83;;
16391;SDS011;8305;-33.882;151.134;2023-06-22T01:16:23;7.80;;;3.92;;
16391;SDS011;8305;-33.882;151.134;2023-06-22T01:18:57;10.50;;;4.18;;
16391;SDS011;8305;-33.882;151.134;2023-06-22T01:21:41;8.70;;;4.20;;
16391;SDS011;8305;-33.882;151.134;2023-06-22T01:24:15;7.35;;;4.00;;
16391;SDS011;8305;-33.882;151.134;2023-06-22T01:26:57;8.55;;;4.82;;
16391;SDS011;8305;-33.882;151.134;2023-06-22T01:29:39;9.20;;;4.22;;
16391;SDS011;8305;-33.882;151.134;2023-06-22T01:32:11;7.20;;;3.53;;
16391;SDS011;8305;-33.882;151.134;2023-06-22T01:34:43;7.50;;;3.67;;
16391;SDS011;8305;-33.882;151.134;2023-06-22T01:37:16;5.95;;;3.40;;
16391;SDS011;8305;-33.882;151.134;2023-06-22T01:39:47;7.28;;;3.33;;
16391;SDS011;8305;-33.882;151.134;2023-06-22T01:42:20;4.60;;;3.35;;
16391;SDS011;8305;-33.882;151.134;2023-06-22T01:44:54;5.60;;;3.70;;
16391;SDS011;8305;-33.882;151.134;2023-06-22T01:47:27;8.80;;;3.95;;
16391;SDS011;8305;-33.882;151.134;2023-06-22T01:49:58;7.90;;;3.75;;
16391;SDS011;8305;-33.882;151.134;2023-06-22T01:52:30;7.70;;;4.00;;
16391;SDS011;8305;-33.882;151.134;2023-06-22T01:55:01;7.40;;;3.70;;
16391;SDS011;8305;-33.882;151.134;2023-06-22T01:57:34;8.52;;;3.90;;
16391;SDS011;8305;-33.882;151.134;2023-06-22T02:00:08;14.07;;;3.60;;
16391;SDS011;8305;-33.882;151.134;2023-06-22T02:02:46;6.35;;;3.35;;
16391;SDS011;8305;-33.882;151.134;2023-06-22T02:05:26;9.65;;;4.38;;
16391;SDS011;8305;-33.882;151.134;2023-06-22T02:08:02;7.07;;;3.60;;
16391;SDS011;8305;-33.882;151.134;2023-06-22T02:10:36;10.40;;;4.65;;
16391;SDS011;8305;-33.882;151.134;2023-06-22T02:13:09;12.50;;;4.47;;
16391;SDS011;8305;-33.882;151.134;2023-06-22T02:15:44;9.80;;;4.20;;
16391;SDS011;8305;-33.882;151.134;2023-06-22T02:18:16;8.27;;;4.10;;
16391;SDS011;8305;-33.882;151.134;2023-06-22T02:20:47;7.75;;;4.20;;
16391;SDS011;8305;-33.882;151.134;2023-06-22T02:23:18;12.82;;;4.40;;
16391;SDS011;8305;-33.882;151.134;2023-06-22T02:25:50;8.23;;;3.80;;
16391;SDS011;8305;-33.882;151.134;2023-06-22T02:28:21;8.68;;;3.60;;
16391;SDS011;8305;-33.882;151.134;2023-06-22T02:30:54;7.60;;;3.03;;
16391;SDS011;8305;-33.882;151.134;2023-06-22T02:33:25;7.60;;;3.00;;
16391;SDS011;8305;-33.882;151.134;2023-06-22T02:35:56;4.78;;;2.95;;
16391;SDS011;8305;-33.882;151.134;2023-06-22T02:38:31;4.47;;;2.50;;
16391;SDS011;8305;-33.882;151.134;2023-06-22T02:41:02;4.28;;;2.38;;
16391;SDS011;8305;-33.882;151.134;2023-06-22T02:43:33;7.50;;;2.78;;
16391;SDS011;8305;-33.882;151.134;2023-06-22T02:46:06;6.95;;;2.60;;
16391;SDS011;8305;-33.882;151.134;2023-06-22T02:48:37;7.40;;;2.65;;
16391;SDS011;8305;-33.882;151.134;2023-06-22T02:51:09;8.52;;;2.33;;
16391;SDS011;8305;-33.882;151.134;2023-06-22T02:53:41;6.15;;;2.72;;
16391;SDS011;8305;-33.882;151.134;2023-06-22T02:56:13;5.65;;;2.53;;
16391;SDS011;8305;-33.882;151.134;2023-06-22T02:58:44;4.93;;;2.10;;
16391;SDS011;8305;-33.882;151.134;2023-06-22T03:01:17;9.50;;;2.40;;
16391;SDS011;8305;-33.882;151.134;2023-06-22T03:03:50;8.95;;;3.03;;
16391;SDS011;8305;-33.882;151.134;2023-06-22T03:06:21;3.08;;;1.90;;
16391;SDS011;8305;-33.882;151.134;2023-06-22T03:08:57;5.22;;;2.00;;
16391;SDS011;8305;-33.882;151.134;2023-06-22T03:11:30;3.13;;;1.67;;
16391;SDS011;8305;-33.882;151.134;2023-06-22T03:14:02;3.95;;;1.90;;
16391;SDS011;8305;-33.882;151.134;2023-06-22T03:16:35;3.35;;;2.05;;
16391;SDS011;8305;-33.882;151.134;2023-06-22T03:19:07;5.07;;;2.00;;
16391;SDS011;8305;-33.882;151.134;2023-06-22T03:21:38;4.53;;;2.00;;
16391;SDS011;8305;-33.882;151.134;2023-06-22T03:24:09;2.92;;;1.90;;
16391;SDS011;8305;-33.882;151.134;2023-06-22T03:26:40;3.13;;;1.98;;
16391;SDS011;8305;-33.882;151.134;2023-06-22T03:29:13;3.85;;;1.77;;
16391;SDS011;8305;-33.882;151.134;2023-06-22T03:31:46;4.22;;;2.03;;
16391;SDS011;8305;-33.882;151.134;2023-06-22T03:34:17;2.60;;;1.83;;
16391;SDS011;8305;-33.882;151.134;2023-06-22T03:36:48;3.50;;;2.38;;
16391;SDS011;8305;-33.882;151.134;2023-06-22T03:39:19;5.75;;;1.90;;
16391;SDS011;8305;-33.882;151.134;2023-06-22T03:41:50;4.30;;;1.50;;
16391;SDS011;8305;-33.882;151.134;2023-06-22T03:44:21;6.43;;;2.28;;
16391;SDS011;8305;-33.882;151.134;2023-06-22T03:46:54;8.48;;;2.20;;
16391;SDS011;8305;-33.882;151.134;2023-06-22T03:49:25;4.95;;;2.20;;
16391;SDS011;8305;-33.882;151.134;2023-06-22T03:51:56;8.43;;;2.38;;
16391;SDS011;8305;-33.882;151.134;2023-06-22T03:54:28;5.32;;;2.03;;
16391;SDS011;8305;-33.882;151.134;2023-06-22T03:56:59;5.30;;;1.92;;
16391;SDS011;8305;-33.882;151.134;2023-06-22T03:59:30;6.55;;;2.00;;
16391;SDS011;8305;-33.882;151.134;2023-06-22T04:02:03;5.28;;;2.25;;
16391;SDS011;8305;-33.882;151.134;2023-06-22T04:04:34;5.22;;;1.88;;
16391;SDS011;8305;-33.882;151.134;2023-06-22T04:07:06;7.10;;;2.20;;
16391;SDS011;8305;-33.882;151.134;2023-06-22T04:09:37;5.40;;;2.00;;
16391;SDS011;8305;-33.882;151.134;2023-06-22T04:12:08;5.45;;;2.20;;
16391;SDS011;8305;-33.882;151.134;2023-06-22T04:14:39;5.07;;;1.73;;
16391;SDS011;8305;-33.882;151.134;2023-06-22T04:17:12;5.30;;;2.00;;
16391;SDS011;8305;-33.882;151.134;2023-06-22T04:19:44;3.55;;;1.98;;
16391;SDS011;8305;-33.882;151.134;2023-06-22T04:22:15;3.80;;;1.98;;
16391;SDS011;8305;-33.882;151.134;2023-06-22T04:24:46;3.78;;;1.80;;
16391;SDS011;8305;-33.882;151.134;2023-06-22T04:27:19;6.18;;;2.00;;
16391;SDS011;8305;-33.882;151.134;2023-06-22T04:29:50;5.20;;;2.15;;
16391;SDS011;8305;-33.882;151.134;2023-06-22T04:32:23;4.07;;;2.10;;
16391;SDS011;8305;-33.882;151.134;2023-06-22T04:34:54;6.85;;;2.60;;
16391;SDS011;8305;-33.882;151.134;2023-06-22T04:37:26;6.90;;;2.35;;
16391;SDS011;8305;-33.882;151.134;2023-06-22T04:39:57;4.00;;;1.77;;
16391;SDS011;8305;-33.882;151.134;2023-06-22T04:42:30;5.93;;;2.28;;
16391;SDS011;8305;-33.882;151.134;2023-06-22T04:45:03;5.93;;;2.28;;
16391;SDS011;8305;-33.882;151.134;2023-06-22T04:47:37;4.97;;;2.03;;
16391;SDS011;8305;-33.882;151.134;2023-06-22T04:50:08;4.85;;;2.20;;
16391;SDS011;8305;-33.882;151.134;2023-06-22T04:52:40;4.47;;;1.83;;
16391;SDS011;8305;-33.882;151.134;2023-06-22T04:55:11;7.85;;;2.03;;
16391;SDS011;8305;-33.882;151.134;2023-06-22T04:57:44;5.43;;;1.98;;
16391;SDS011;8305;-33.882;151.134;2023-06-22T05:00:16;5.97;;;2.33;;
16391;SDS011;8305;-33.882;151.134;2023-06-22T05:02:51;7.90;;;2.10;;
16391;SDS011;8305;-33.882;151.134;2023-06-22T05:05:23;5.57;;;1.92;;
16391;SDS011;8305;-33.882;151.134;2023-06-22T05:07:55;7.95;;;2.13;;
16391;SDS011;8305;-33.882;151.134;2023-06-22T05:10:28;4.25;;;1.92;;
16391;SDS011;8305;-33.882;151.134;2023-06-22T05:12:59;4.32;;;2.10;;
16391;SDS011;8305;-33.882;151.134;2023-06-22T05:15:30;5.90;;;1.88;;
16391;SDS011;8305;-33.882;151.134;2023-06-22T05:18:08;5.82;;;2.10;;
16391;SDS011;8305;-33.882;151.134;2023-06-22T05:20:40;4.78;;;2.28;;
16391;SDS011;8305;-33.882;151.134;2023-06-22T05:23:11;9.65;;;2.33;;
16391;SDS011;8305;-33.882;151.134;2023-06-22T05:25:42;9.35;;;1.90;;
16391;SDS011;8305;-33.882;151.134;2023-06-22T05:28:14;2.83;;;1.50;;
16391;SDS011;8305;-33.882;151.134;2023-06-22T05:30:49;3.97;;;1.65;;
16391;SDS011;8305;-33.882;151.134;2023-06-22T05:33:22;6.65;;;1.90;;
16391;SDS011;8305;-33.882;151.134;2023-06-22T05:35:53;5.15;;;1.85;;
16391;SDS011;8305;-33.882;151.134;2023-06-22T05:38:24;3.92;;;1.95;;
16391;SDS011;8305;-33.882;151.134;2023-06-22T05:40:55;5.03;;;1.90;;
16391;SDS011;8305;-33.882;151.134;2023-06-22T05:43:27;7.70;;;1.90;;
16391;SDS011;8305;-33.882;151.134;2023-06-22T05:45:58;4.95;;;2.10;;
16391;SDS011;8305;-33.882;151.134;2023-06-22T05:48:31;5.22;;;2.00;;
16391;SDS011;8305;-33.882;151.134;2023-06-22T05:51:03;4.95;;;1.90;;
16391;SDS011;8305;-33.882;151.134;2023-06-22T05:53:34;4.57;;;2.10;;
16391;SDS011;8305;-33.882;151.134;2023-06-22T05:56:05;5.38;;;2.10;;
16391;SDS011;8305;-33.882;151.134;2023-06-22T05:58:36;4.93;;;1.73;;
16391;SDS011;8305;-33.882;151.134;2023-06-22T06:01:07;5.65;;;2.00;;
16391;SDS011;8305;-33.882;151.134;2023-06-22T06:03:40;5.32;;;2.00;;
16391;SDS011;8305;-33.882;151.134;2023-06-22T06:06:11;5.05;;;2.20;;
16391;SDS011;8305;-33.882;151.134;2023-06-22T06:08:42;5.65;;;2.75;;
16391;SDS011;8305;-33.882;151.134;2023-06-22T06:11:14;10.35;;;3.35;;
16391;SDS011;8305;-33.882;151.134;2023-06-22T06:13:45;6.00;;;2.90;;
16391;SDS011;8305;-33.882;151.134;2023-06-22T06:16:16;8.88;;;3.95;;
16391;SDS011;8305;-33.882;151.134;2023-06-22T06:18:49;10.88;;;4.22;;
16391;SDS011;8305;-33.882;151.134;2023-06-22T06:21:22;7.95;;;4.25;;
16391;SDS011;8305;-33.882;151.134;2023-06-22T06:23:53;10.23;;;4.50;;
16391;SDS011;8305;-33.882;151.134;2023-06-22T06:26:24;14.32;;;4.80;;
16391;SDS011;8305;-33.882;151.134;2023-06-22T06:28:59;9.20;;;4.50;;
16391;SDS011;8305;-33.882;151.134;2023-06-22T06:31:30;8.65;;;3.95;;
16391;SDS011;8305;-33.882;151.134;2023-06-22T06:34:04;8.70;;;3.97;;
16391;SDS011;8305;-33.882;151.134;2023-06-22T06:36:35;10.43;;;4.32;;
16391;SDS011;8305;-33.882;151.134;2023-06-22T06:39:06;7.38;;;4.22;;
16391;SDS011;8305;-33.882;151.134;2023-06-22T06:41:37;7.80;;;4.40;;
16391;SDS011;8305;-33.882;151.134;2023-06-22T06:44:08;6.97;;;3.97;;
16391;SDS011;8305;-33.882;151.134;2023-06-22T06:46:39;8.48;;;4.10;;
16391;SDS011;8305;-33.882;151.134;2023-06-22T06:49:12;10.80;;;4.50;;
16391;SDS011;8305;-33.882;151.134;2023-06-22T06:51:43;10.38;;;4.35;;
16391;SDS011;8305;-33.882;151.134;2023-06-22T06:54:14;8.50;;;4.30;;
16391;SDS011;8305;-33.882;151.134;2023-06-22T06:56:47;7.22;;;4.40;;
16391;SDS011;8305;-33.882;151.134;2023-06-22T06:59:18;11.93;;;4.88;;
16391;SDS011;8305;-33.882;151.134;2023-06-22T07:01:49;8.18;;;4.82;;
16391;SDS011;8305;-33.882;151.134;2023-06-22T07:04:22;8.73;;;4.80;;
16391;SDS011;8305;-33.882;151.134;2023-06-22T07:06:53;10.38;;;5.00;;
16391;SDS011;8305;-33.882;151.134;2023-06-22T07:09:24;11.45;;;5.25;;
16391;SDS011;8305;-33.882;151.134;2023-06-22T07:11:55;8.52;;;5.18;;
16391;SDS011;8305;-33.882;151.134;2023-06-22T07:14:26;7.35;;;5.18;;
16391;SDS011;8305;-33.882;151.134;2023-06-22T07:16:57;11.70;;;5.05;;
16391;SDS011;8305;-33.882;151.134;2023-06-22T07:19:30;8.23;;;5.00;;
16391;SDS011;8305;-33.882;151.134;2023-06-22T07:22:01;10.25;;;5.43;;
16391;SDS011;8305;-33.882;151.134;2023-06-22T07:24:32;10.65;;;5.50;;
16391;SDS011;8305;-33.882;151.134;2023-06-22T07:27:04;13.30;;;5.32;;
16391;SDS011;8305;-33.882;151.134;2023-06-22T07:29:37;9.23;;;5.30;;
16391;SDS011;8305;-33.882;151.134;2023-06-22T07:32:09;9.18;;;5.72;;
16391;SDS011;8305;-33.882;151.134;2023-06-22T07:34:42;9.93;;;5.32;;
16391;SDS011;8305;-33.882;151.134;2023-06-22T07:37:13;9.82;;;5.28;;
16391;SDS011;8305;-33.882;151.134;2023-06-22T07:39:44;9.75;;;5.68;;
16391;SDS011;8305;-33.882;151.134;2023-06-22T07:42:16;9.93;;;5.68;;
16391;SDS011;8305;-33.882;151.134;2023-06-22T07:44:47;8.32;;;5.70;;
16391;SDS011;8305;-33.882;151.134;2023-06-22T07:47:19;10.35;;;5.43;;
16391;SDS011;8305;-33.882;151.134;2023-06-22T07:49:53;8.57;;;5.65;;
16391;SDS011;8305;-33.882;151.134;2023-06-22T07:52:24;12.85;;;6.43;;
16391;SDS011;8305;-33.882;151.134;2023-06-22T07:54:55;10.15;;;5.80;;
16391;SDS011;8305;-33.882;151.134;2023-06-22T07:57:26;9.82;;;5.68;;
16391;SDS011;8305;-33.882;151.134;2023-06-22T08:00:00;9.30;;;6.18;;
16391;SDS011;8305;-33.882;151.134;2023-06-22T08:02:39;10.48;;;6.00;;
16391;SDS011;8305;-33.882;151.134;2023-06-22T08:05:12;9.23;;;5.63;;
16391;SDS011;8305;-33.882;151.134;2023-06-22T08:07:44;9.95;;;5.85;;
16391;SDS011;8305;-33.882;151.134;2023-06-22T08:10:15;8.48;;;5.43;;
16391;SDS011;8305;-33.882;151.134;2023-06-22T08:12:47;10.70;;;6.13;;
16391;SDS011;8305;-33.882;151.134;2023-06-22T08:15:18;9.40;;;6.30;;
16391;SDS011;8305;-33.882;151.134;2023-06-22T08:17:49;12.73;;;6.60;;
16391;SDS011;8305;-33.882;151.134;2023-06-22T08:20:23;12.15;;;7.03;;
16391;SDS011;8305;-33.882;151.134;2023-06-22T08:22:54;9.68;;;6.47;;
16391;SDS011;8305;-33.882;151.134;2023-06-22T08:25:31;10.82;;;6.78;;
16391;SDS011;8305;-33.882;151.134;2023-06-22T08:28:03;11.63;;;6.60;;
16391;SDS011;8305;-33.882;151.134;2023-06-22T08:30:34;13.88;;;8.38;;
16391;SDS011;8305;-33.882;151.134;2023-06-22T08:33:05;11.35;;;7.13;;
16391;SDS011;8305;-33.882;151.134;2023-06-22T08:35:38;12.20;;;6.78;;
16391;SDS011;8305;-33.882;151.134;2023-06-22T08:38:09;13.52;;;6.65;;
16391;SDS011;8305;-33.882;151.134;2023-06-22T08:40:41;12.68;;;6.88;;
16391;SDS011;8305;-33.882;151.134;2023-06-22T08:43:13;12.18;;;6.20;;
16391;SDS011;8305;-33.882;151.134;2023-06-22T08:45:44;12.55;;;6.03;;
16391;SDS011;8305;-33.882;151.134;2023-06-22T08:48:15;14.20;;;6.95;;
16391;SDS011;8305;-33.882;151.134;2023-06-22T08:50:48;14.60;;;6.47;;
16391;SDS011;8305;-33.882;151.134;2023-06-22T08:53:19;9.43;;;6.45;;
16391;SDS011;8305;-33.882;151.134;2023-06-22T08:55:50;13.60;;;6.75;;
16391;SDS011;8305;-33.882;151.134;2023-06-22T08:58:21;11.77;;;6.57;;
16391;SDS011;8305;-33.882;151.134;2023-06-22T09:00:52;14.20;;;7.05;;
16391;SDS011;8305;-33.882;151.134;2023-06-22T09:03:27;11.00;;;6.38;;
16391;SDS011;8305;-33.882;151.134;2023-06-22T09:06:01;11.80;;;7.10;;
16391;SDS011;8305;-33.882;151.134;2023-06-22T09:08:32;11.05;;;6.70;;
16391;SDS011;8305;-33.882;151.134;2023-06-22T09:11:03;10.57;;;6.45;;
16391;SDS011;8305;-33.882;151.134;2023-06-22T09:13:34;10.15;;;5.93;;
16391;SDS011;8305;-33.882;151.134;2023-06-22T09:16:05;12.30;;;6.70;;
16391;SDS011;8305;-33.882;151.134;2023-06-22T09:18:36;11.63;;;6.05;;
16391;SDS011;8305;-33.882;151.134;2023-06-22T09:21:10;11.60;;;6.32;;
16391;SDS011;8305;-33.882;151.134;2023-06-22T09:23:41;9.93;;;6.30;;
16391;SDS011;8305;-33.882;151.134;2023-06-22T09:26:16;11.43;;;6.15;;
16391;SDS011;8305;-33.882;151.134;2023-06-22T09:28:47;11.45;;;6.70;;
16391;SDS011;8305;-33.882;151.134;2023-06-22T09:31:18;11.85;;;5.93;;
16391;SDS011;8305;-33.882;151.134;2023-06-22T09:33:52;11.48;;;6.32;;
16391;SDS011;8305;-33.882;151.134;2023-06-22T09:36:25;10.82;;;6.35;;
16391;SDS011;8305;-33.882;151.134;2023-06-22T09:38:57;12.88;;;6.82;;
16391;SDS011;8305;-33.882;151.134;2023-06-22T09:41:32;11.35;;;6.63;;
16391;SDS011;8305;-33.882;151.134;2023-06-22T09:44:03;10.18;;;6.65;;
16391;SDS011;8305;-33.882;151.134;2023-06-22T09:46:34;11.75;;;6.88;;
16391;SDS011;8305;-33.882;151.134;2023-06-22T09:49:05;14.52;;;6.75;;
16391;SDS011;8305;-33.882;151.134;2023-06-22T09:51:39;14.10;;;6.50;;
16391;SDS011;8305;-33.882;151.134;2023-06-22T09:54:10;12.48;;;6.50;;
16391;SDS011;8305;-33.882;151.134;2023-06-22T09:56:41;12.25;;;6.10;;
16391;SDS011;8305;-33.882;151.134;2023-06-22T09:59:12;14.25;;;7.20;;
16391;SDS011;8305;-33.882;151.134;2023-06-22T10:01:43;14.02;;;7.45;;
16391;SDS011;8305;-33.882;151.134;2023-06-22T10:04:14;13.32;;;6.97;;
16391;SDS011;8305;-33.882;151.134;2023-06-22T10:06:47;13.68;;;7.47;;
16391;SDS011;8305;-33.882;151.134;2023-06-22T10:09:18;10.60;;;6.97;;
16391;SDS011;8305;-33.882;151.134;2023-06-22T10:11:49;14.93;;;7.43;;
16391;SDS011;8305;-33.882;151.134;2023-06-22T10:14:20;12.15;;;6.93;;
16391;SDS011;8305;-33.882;151.134;2023-06-22T10:16:53;11.30;;;6.70;;
16391;SDS011;8305;-33.882;151.134;2023-06-22T10:19:24;16.55;;;7.38;;
16391;SDS011;8305;-33.882;151.134;2023-06-22T10:21:57;17.20;;;7.22;;
16391;SDS011;8305;-33.882;151.134;2023-06-22T10:24:28;13.80;;;6.38;;
16391;SDS011;8305;-33.882;151.134;2023-06-22T10:26:59;10.40;;;6.65;;
16391;SDS011;8305;-33.882;151.134;2023-06-22T10:29:31;9.98;;;6.53;;
16391;SDS011;8305;-33.882;151.134;2023-06-22T10:32:02;14.77;;;7.10;;
16391;SDS011;8305;-33.882;151.134;2023-06-22T10:34:33;14.25;;;7.25;;
16391;SDS011;8305;-33.882;151.134;2023-06-22T10:37:06;13.50;;;6.93;;
16391;SDS011;8305;-33.882;151.134;2023-06-22T10:39:37;13.75;;;7.30;;
16391;SDS011;8305;-33.882;151.134;2023-06-22T10:42:08;16.45;;;7.63;;
16391;SDS011;8305;-33.882;151.134;2023-06-22T10:44:40;13.50;;;7.68;;
16391;SDS011;8305;-33.882;151.134;2023-06-22T10:47:11;15.30;;;8.48;;
16391;SDS011;8305;-33.882;151.134;2023-06-22T10:49:42;14.73;;;9.05;;
16391;SDS011;8305;-33.882;151.134;2023-06-22T10:52:15;19.00;;;8.98;;
16391;SDS011;8305;-33.882;151.134;2023-06-22T10:54:46;18.02;;;9.25;;
16391;SDS011;8305;-33.882;151.134;2023-06-22T10:57:17;13.25;;;8.20;;
16391;SDS011;8305;-33.882;151.134;2023-06-22T10:59:48;14.05;;;8.23;;
16391;SDS011;8305;-33.882;151.134;2023-06-22T11:02:20;12.15;;;7.25;;
16391;SDS011;8305;-33.882;151.134;2023-06-22T11:04:51;13.48;;;8.13;;
16391;SDS011;8305;-33.882;151.134;2023-06-22T11:07:24;17.00;;;8.57;;
16391;SDS011;8305;-33.882;151.134;2023-06-22T11:09:55;14.35;;;8.88;;
16391;SDS011;8305;-33.882;151.134;2023-06-22T11:12:26;12.98;;;9.27;;
16391;SDS011;8305;-33.882;151.134;2023-06-22T11:14:57;13.90;;;8.75;;
16391;SDS011;8305;-33.882;151.134;2023-06-22T11:17:28;13.63;;;8.55;;
16391;SDS011;8305;-33.882;151.134;2023-06-22T11:19:59;14.85;;;8.23;;
16391;SDS011;8305;-33.882;151.134;2023-06-22T11:22:39;13.93;;;7.93;;
16391;SDS011;8305;-33.882;151.134;2023-06-22T11:25:10;11.98;;;7.97;;
16391;SDS011;8305;-33.882;151.134;2023-06-22T11:27:41;11.27;;;8.15;;
16391;SDS011;8305;-33.882;151.134;2023-06-22T11:30:12;15.90;;;8.70;;
16391;SDS011;8305;-33.882;151.134;2023-06-22T11:32:43;13.70;;;8.27;;
16391;SDS011;8305;-33.882;151.134;2023-06-22T11:35:14;13.20;;;7.93;;
16391;SDS011;8305;-33.882;151.134;2023-06-22T11:37:47;14.88;;;8.68;;
16391;SDS011;8305;-33.882;151.134;2023-06-22T11:40:19;14.38;;;8.35;;
16391;SDS011;8305;-33.882;151.134;2023-06-22T11:42:50;13.48;;;8.68;;
16391;SDS011;8305;-33.882;151.134;2023-06-22T11:45:21;15.23;;;8.45;;
16391;SDS011;8305;-33.882;151.134;2023-06-22T11:47:52;14.88;;;8.20;;
16391;SDS011;8305;-33.882;151.134;2023-06-22T11:50:23;11.55;;;7.88;;
16391;SDS011;8305;-33.882;151.134;2023-06-22T11:52:58;12.18;;;7.40;;
16391;SDS011;8305;-33.882;151.134;2023-06-22T11:55:29;14.27;;;7.50;;
16391;SDS011;8305;-33.882;151.134;2023-06-22T11:58:00;13.02;;;7.50;;
16391;SDS011;8305;-33.882;151.134;2023-06-22T12:00:32;13.50;;;7.25;;
16391;SDS011;8305;-33.882;151.134;2023-06-22T12:03:03;11.57;;;7.22;;
16391;SDS011;8305;-33.882;151.134;2023-06-22T12:05:35;14.43;;;7.30;;
16391;SDS011;8305;-33.882;151.134;2023-06-22T12:08:08;12.25;;;7.88;;
16391;SDS011;8305;-33.882;151.134;2023-06-22T12:10:40;13.00;;;7.50;;
16391;SDS011;8305;-33.882;151.134;2023-06-22T12:13:11;9.35;;;7.05;;
16391;SDS011;8305;-33.882;151.134;2023-06-22T12:15:42;11.50;;;7.55;;
16391;SDS011;8305;-33.882;151.134;2023-06-22T12:18:13;11.25;;;7.55;;
16391;SDS011;8305;-33.882;151.134;2023-06-22T12:20:46;11.70;;;7.63;;
16391;SDS011;8305;-33.882;151.134;2023-06-22T12:23:20;10.77;;;7.60;;
16391;SDS011;8305;-33.882;151.134;2023-06-22T12:25:51;10.25;;;7.28;;
16391;SDS011;8305;-33.882;151.134;2023-06-22T12:28:22;12.65;;;7.25;;
16391;SDS011;8305;-33.882;151.134;2023-06-22T12:30:53;13.13;;;7.53;;
16391;SDS011;8305;-33.882;151.134;2023-06-22T12:33:24;9.75;;;7.15;;
16391;SDS011;8305;-33.882;151.134;2023-06-22T12:35:56;14.65;;;7.75;;
16391;SDS011;8305;-33.882;151.134;2023-06-22T12:38:29;11.40;;;7.30;;
16391;SDS011;8305;-33.882;151.134;2023-06-22T12:41:01;11.07;;;7.00;;
16391;SDS011;8305;-33.882;151.134;2023-06-22T12:43:32;11.85;;;7.43;;
16391;SDS011;8305;-33.882;151.134;2023-06-22T12:46:03;12.63;;;7.32;;
16391;SDS011;8305;-33.882;151.134;2023-06-22T12:48:34;12.65;;;6.88;;
16391;SDS011;8305;-33.882;151.134;2023-06-22T12:51:08;11.55;;;7.03;;
16391;SDS011;8305;-33.882;151.134;2023-06-22T12:53:41;14.43;;;7.55;;
16391;SDS011;8305;-33.882;151.134;2023-06-22T12:56:12;9.30;;;6.40;;
16391;SDS011;8305;-33.882;151.134;2023-06-22T12:58:43;8.48;;;6.85;;
16391;SDS011;8305;-33.882;151.134;2023-06-22T13:01:14;11.65;;;6.80;;
16391;SDS011;8305;-33.882;151.134;2023-06-22T13:03:45;10.98;;;6.63;;
16391;SDS011;8305;-33.882;151.134;2023-06-22T13:06:16;12.02;;;7.45;;
16391;SDS011;8305;-33.882;151.134;2023-06-22T13:08:50;11.30;;;7.15;;
16391;SDS011;8305;-33.882;151.134;2023-06-22T13:11:21;13.48;;;6.97;;
16391;SDS011;8305;-33.882;151.134;2023-06-22T13:13:52;10.60;;;6.57;;
16391;SDS011;8305;-33.882;151.134;2023-06-22T13:16:23;11.23;;;7.10;;
16391;SDS011;8305;-33.882;151.134;2023-06-22T13:18:54;13.27;;;7.18;;
16391;SDS011;8305;-33.882;151.134;2023-06-22T13:21:25;14.50;;;7.60;;
16391;SDS011;8305;-33.882;151.134;2023-06-22T13:23:58;11.20;;;6.93;;
16391;SDS011;8305;-33.882;151.134;2023-06-22T13:26:29;11.95;;;7.28;;
16391;SDS011;8305;-33.882;151.134;2023-06-22T13:29:01;11.35;;;7.00;;
16391;SDS011;8305;-33.882;151.134;2023-06-22T13:31:32;11.70;;;7.43;;
16391;SDS011;8305;-33.882;151.134;2023-06-22T13:34:03;12.40;;;7.50;;
16391;SDS011;8305;-33.882;151.134;2023-06-22T13:36:34;13.20;;;7.38;;
16391;SDS011;8305;-33.882;151.134;2023-06-22T13:39:07;13.48;;;7.70;;
16391;SDS011;8305;-33.882;151.134;2023-06-22T13:41:38;10.90;;;7.55;;
16391;SDS011;8305;-33.882;151.134;2023-06-22T13:44:10;12.05;;;7.47;;
16391;SDS011;8305;-33.882;151.134;2023-06-22T13:46:41;12.65;;;7.38;;
16391;SDS011;8305;-33.882;151.134;2023-06-22T13:49:12;12.75;;;7.00;;
16391;SDS011;8305;-33.882;151.134;2023-06-22T13:51:43;10.90;;;7.55;;
16391;SDS011;8305;-33.882;151.134;2023-06-22T13:54:16;12.45;;;7.88;;
16391;SDS011;8305;-33.882;151.134;2023-06-22T13:56:47;10.95;;;7.15;;
16391;SDS011;8305;-33.882;151.134;2023-06-22T13:59:18;12.73;;;7.45;;
16391;SDS011;8305;-33.882;151.134;2023-06-22T14:01:49;12.57;;;7.50;;
16391;SDS011;8305;-33.882;151.134;2023-06-22T14:04:21;9.88;;;7.43;;
16391;SDS011;8305;-33.882;151.134;2023-06-22T14:06:52;10.88;;;7.90;;
16391;SDS011;8305;-33.882;151.134;2023-06-22T14:09:26;9.65;;;6.63;;
16391;SDS011;8305;-33.882;151.134;2023-06-22T14:11:57;7.90;;;6.30;;
16391;SDS011;8305;-33.882;151.134;2023-06-22T14:14:31;9.05;;;6.85;;
16391;SDS011;8305;-33.882;151.134;2023-06-22T14:17:03;10.00;;;6.18;;
16391;SDS011;8305;-33.882;151.134;2023-06-22T14:19:35;9.80;;;5.90;;
16391;SDS011;8305;-33.882;151.134;2023-06-22T14:22:06;7.60;;;5.13;;
16391;SDS011;8305;-33.882;151.134;2023-06-22T14:24:39;8.82;;;5.10;;
16391;SDS011;8305;-33.882;151.134;2023-06-22T14:27:10;7.43;;;4.78;;
16391;SDS011;8305;-33.882;151.134;2023-06-22T14:29:41;7.35;;;4.50;;
16391;SDS011;8305;-33.882;151.134;2023-06-22T14:32:12;5.25;;;3.75;;
16391;SDS011;8305;-33.882;151.134;2023-06-22T14:34:43;7.40;;;3.65;;
16391;SDS011;8305;-33.882;151.134;2023-06-22T14:37:16;5.05;;;2.83;;
16391;SDS011;8305;-33.882;151.134;2023-06-22T14:39:49;5.35;;;3.30;;
16391;SDS011;8305;-33.882;151.134;2023-06-22T14:42:20;4.07;;;2.58;;
16391;SDS011;8305;-33.882;151.134;2023-06-22T14:44:53;3.50;;;2.78;;